Terminal Aerodrome Forecast
Issued by NWS Nashville, TN

Home | Current Version | Previous Version | Text Only | Print | Product List | Glossary On
Versions: 1 2 3 4 5 6 7 8 9 10 11 12 13 14 15 16 17 18 19 20 21 22 23 24 25 26 27
000
FTUS44 KOHX 050521
TAFBNA
TAF
KBNA 050521Z 0506/0606 30005KT P6SM OVC016
     FM051000 34004KT 4SM BR OVC007
     FM051500 06006KT P6SM OVC010
     FM052100 08006KT P6SM VCSH OVC015
     FM060000 07006KT 4SM -SHRA BR OVC007=

USA.gov is the U.S. government's official web portal to all federal, state and local government web resources and services.